sensor_id;sensor_type;location;lat;lon;timestamp;P1;durP1;ratioP1;P2;durP2;ratioP2
7057;SDS011;3570;43.080;25.628;2023-08-07T00:02:11;7.17;;;5.83;;
7057;SDS011;3570;43.080;25.628;2023-08-07T00:04:55;7.77;;;5.70;;
7057;SDS011;3570;43.080;25.628;2023-08-07T00:07:41;7.03;;;5.57;;
7057;SDS011;3570;43.080;25.628;2023-08-07T00:10:25;7.83;;;4.93;;
7057;SDS011;3570;43.080;25.628;2023-08-07T00:13:09;6.50;;;5.00;;
7057;SDS011;3570;43.080;25.628;2023-08-07T00:15:53;5.83;;;5.00;;
7057;SDS011;3570;43.080;25.628;2023-08-07T00:18:37;5.23;;;4.40;;
7057;SDS011;3570;43.080;25.628;2023-08-07T00:21:22;5.87;;;4.43;;
7057;SDS011;3570;43.080;25.628;2023-08-07T00:24:06;6.13;;;5.10;;
7057;SDS011;3570;43.080;25.628;2023-08-07T00:26:50;5.03;;;4.53;;
7057;SDS011;3570;43.080;25.628;2023-08-07T00:29:34;6.50;;;4.07;;
7057;SDS011;3570;43.080;25.628;2023-08-07T00:32:18;6.37;;;4.73;;
7057;SDS011;3570;43.080;25.628;2023-08-07T00:35:02;5.93;;;4.37;;
7057;SDS011;3570;43.080;25.628;2023-08-07T00:37:47;5.30;;;4.00;;
7057;SDS011;3570;43.080;25.628;2023-08-07T00:40:38;6.33;;;4.17;;
7057;SDS011;3570;43.080;25.628;2023-08-07T00:43:23;4.77;;;3.80;;
7057;SDS011;3570;43.080;25.628;2023-08-07T00:46:07;5.33;;;4.13;;
7057;SDS011;3570;43.080;25.628;2023-08-07T00:48:51;4.53;;;3.70;;
7057;SDS011;3570;43.080;25.628;2023-08-07T00:51:37;5.07;;;4.10;;
7057;SDS011;3570;43.080;25.628;2023-08-07T00:54:22;4.73;;;4.23;;
7057;SDS011;3570;43.080;25.628;2023-08-07T00:57:09;4.53;;;4.10;;
7057;SDS011;3570;43.080;25.628;2023-08-07T00:59:55;4.27;;;3.67;;
7057;SDS011;3570;43.080;25.628;2023-08-07T01:02:39;5.10;;;3.73;;
7057;SDS011;3570;43.080;25.628;2023-08-07T01:05:24;4.03;;;3.63;;
7057;SDS011;3570;43.080;25.628;2023-08-07T01:08:09;4.57;;;4.07;;
7057;SDS011;3570;43.080;25.628;2023-08-07T01:17:15;4.20;;;3.70;;
7057;SDS011;3570;43.080;25.628;2023-08-07T01:20:00;4.40;;;3.60;;
7057;SDS011;3570;43.080;25.628;2023-08-07T01:22:45;4.10;;;3.47;;
7057;SDS011;3570;43.080;25.628;2023-08-07T01:25:29;4.27;;;3.60;;
7057;SDS011;3570;43.080;25.628;2023-08-07T01:28:26;5.03;;;3.97;;
7057;SDS011;3570;43.080;25.628;2023-08-07T01:31:16;5.23;;;3.80;;
7057;SDS011;3570;43.080;25.628;2023-08-07T01:34:06;4.43;;;3.60;;
7057;SDS011;3570;43.080;25.628;2023-08-07T01:36:52;3.93;;;3.37;;
7057;SDS011;3570;43.080;25.628;2023-08-07T01:39:38;4.20;;;3.27;;
7057;SDS011;3570;43.080;25.628;2023-08-07T01:42:24;7.00;;;3.50;;
7057;SDS011;3570;43.080;25.628;2023-08-07T01:45:08;3.97;;;3.23;;
7057;SDS011;3570;43.080;25.628;2023-08-07T01:47:53;4.30;;;3.67;;
7057;SDS011;3570;43.080;25.628;2023-08-07T01:50:38;6.03;;;3.80;;
7057;SDS011;3570;43.080;25.628;2023-08-07T01:53:22;5.50;;;3.77;;
7057;SDS011;3570;43.080;25.628;2023-08-07T01:56:06;4.83;;;3.33;;
7057;SDS011;3570;43.080;25.628;2023-08-07T01:58:50;3.60;;;3.00;;
7057;SDS011;3570;43.080;25.628;2023-08-07T02:01:34;3.63;;;3.17;;
7057;SDS011;3570;43.080;25.628;2023-08-07T02:04:18;6.67;;;3.67;;
7057;SDS011;3570;43.080;25.628;2023-08-07T02:07:02;4.10;;;3.60;;
7057;SDS011;3570;43.080;25.628;2023-08-07T02:09:47;3.93;;;3.43;;
7057;SDS011;3570;43.080;25.628;2023-08-07T02:12:30;3.90;;;3.50;;
7057;SDS011;3570;43.080;25.628;2023-08-07T02:15:15;4.27;;;3.87;;
7057;SDS011;3570;43.080;25.628;2023-08-07T02:18:00;4.60;;;3.73;;
7057;SDS011;3570;43.080;25.628;2023-08-07T02:20:43;5.13;;;4.03;;
7057;SDS011;3570;43.080;25.628;2023-08-07T02:23:29;4.43;;;3.70;;
7057;SDS011;3570;43.080;25.628;2023-08-07T02:26:13;4.70;;;3.87;;
7057;SDS011;3570;43.080;25.628;2023-08-07T02:28:57;4.27;;;3.53;;
7057;SDS011;3570;43.080;25.628;2023-08-07T02:31:41;4.20;;;3.30;;
7057;SDS011;3570;43.080;25.628;2023-08-07T02:34:25;4.23;;;3.70;;
7057;SDS011;3570;43.080;25.628;2023-08-07T02:37:09;4.30;;;3.90;;
7057;SDS011;3570;43.080;25.628;2023-08-07T02:39:53;4.73;;;3.73;;
7057;SDS011;3570;43.080;25.628;2023-08-07T02:42:37;4.67;;;3.80;;
7057;SDS011;3570;43.080;25.628;2023-08-07T02:45:21;5.97;;;4.10;;
7057;SDS011;3570;43.080;25.628;2023-08-07T02:48:05;5.13;;;3.73;;
7057;SDS011;3570;43.080;25.628;2023-08-07T02:50:49;4.93;;;3.90;;
7057;SDS011;3570;43.080;25.628;2023-08-07T02:53:35;5.17;;;4.43;;
7057;SDS011;3570;43.080;25.628;2023-08-07T02:56:19;4.77;;;4.00;;
7057;SDS011;3570;43.080;25.628;2023-08-07T02:59:03;4.80;;;4.00;;
7057;SDS011;3570;43.080;25.628;2023-08-07T03:01:49;4.60;;;3.70;;
7057;SDS011;3570;43.080;25.628;2023-08-07T03:04:33;5.60;;;4.47;;
7057;SDS011;3570;43.080;25.628;2023-08-07T03:07:18;4.00;;;3.53;;
7057;SDS011;3570;43.080;25.628;2023-08-07T03:10:02;7.27;;;4.40;;
7057;SDS011;3570;43.080;25.628;2023-08-07T03:12:47;5.17;;;4.67;;
7057;SDS011;3570;43.080;25.628;2023-08-07T03:15:31;4.90;;;4.00;;
7057;SDS011;3570;43.080;25.628;2023-08-07T03:18:18;5.73;;;4.30;;
7057;SDS011;3570;43.080;25.628;2023-08-07T03:21:02;5.07;;;4.10;;
7057;SDS011;3570;43.080;25.628;2023-08-07T03:23:46;5.40;;;4.10;;
7057;SDS011;3570;43.080;25.628;2023-08-07T03:26:30;5.07;;;4.33;;
7057;SDS011;3570;43.080;25.628;2023-08-07T03:29:15;5.10;;;4.53;;
7057;SDS011;3570;43.080;25.628;2023-08-07T03:31:59;9.17;;;4.27;;
7057;SDS011;3570;43.080;25.628;2023-08-07T03:34:43;4.47;;;4.03;;
7057;SDS011;3570;43.080;25.628;2023-08-07T03:37:27;6.97;;;4.23;;
7057;SDS011;3570;43.080;25.628;2023-08-07T03:40:11;4.70;;;4.10;;
7057;SDS011;3570;43.080;25.628;2023-08-07T03:42:54;7.77;;;3.97;;
7057;SDS011;3570;43.080;25.628;2023-08-07T03:45:39;4.43;;;3.77;;
7057;SDS011;3570;43.080;25.628;2023-08-07T03:48:23;4.10;;;3.60;;
7057;SDS011;3570;43.080;25.628;2023-08-07T03:51:07;4.70;;;4.13;;
7057;SDS011;3570;43.080;25.628;2023-08-07T03:53:51;4.77;;;3.67;;
7057;SDS011;3570;43.080;25.628;2023-08-07T03:56:35;4.00;;;3.60;;
7057;SDS011;3570;43.080;25.628;2023-08-07T03:59:20;4.70;;;3.40;;
7057;SDS011;3570;43.080;25.628;2023-08-07T04:02:04;4.23;;;3.83;;
7057;SDS011;3570;43.080;25.628;2023-08-07T04:04:48;4.23;;;3.60;;
7057;SDS011;3570;43.080;25.628;2023-08-07T04:07:32;4.50;;;3.67;;
7057;SDS011;3570;43.080;25.628;2023-08-07T04:10:16;4.73;;;4.10;;
7057;SDS011;3570;43.080;25.628;2023-08-07T04:13:00;5.73;;;4.23;;
7057;SDS011;3570;43.080;25.628;2023-08-07T04:15:44;4.90;;;3.70;;
7057;SDS011;3570;43.080;25.628;2023-08-07T04:18:28;5.27;;;4.20;;
7057;SDS011;3570;43.080;25.628;2023-08-07T04:21:12;4.97;;;3.70;;
7057;SDS011;3570;43.080;25.628;2023-08-07T04:23:56;4.23;;;3.63;;
7057;SDS011;3570;43.080;25.628;2023-08-07T04:26:40;5.80;;;4.07;;
7057;SDS011;3570;43.080;25.628;2023-08-07T04:29:24;4.60;;;3.70;;
7057;SDS011;3570;43.080;25.628;2023-08-07T04:32:08;3.87;;;3.50;;
7057;SDS011;3570;43.080;25.628;2023-08-07T04:34:53;4.40;;;3.67;;
7057;SDS011;3570;43.080;25.628;2023-08-07T04:37:37;5.13;;;4.23;;
7057;SDS011;3570;43.080;25.628;2023-08-07T04:40:21;4.67;;;4.00;;
7057;SDS011;3570;43.080;25.628;2023-08-07T04:43:05;4.43;;;3.77;;
7057;SDS011;3570;43.080;25.628;2023-08-07T04:45:49;4.23;;;3.83;;
7057;SDS011;3570;43.080;25.628;2023-08-07T04:48:33;5.20;;;3.87;;
7057;SDS011;3570;43.080;25.628;2023-08-07T04:51:16;4.87;;;4.40;;
7057;SDS011;3570;43.080;25.628;2023-08-07T04:54:00;5.53;;;3.60;;
7057;SDS011;3570;43.080;25.628;2023-08-07T04:56:45;4.53;;;3.37;;
7057;SDS011;3570;43.080;25.628;2023-08-07T04:59:29;4.50;;;3.80;;
7057;SDS011;3570;43.080;25.628;2023-08-07T05:02:14;4.00;;;3.57;;
7057;SDS011;3570;43.080;25.628;2023-08-07T05:04:58;4.50;;;3.97;;
7057;SDS011;3570;43.080;25.628;2023-08-07T05:07:41;4.83;;;3.97;;
7057;SDS011;3570;43.080;25.628;2023-08-07T05:10:25;7.10;;;4.40;;
7057;SDS011;3570;43.080;25.628;2023-08-07T05:13:10;3.57;;;3.10;;
7057;SDS011;3570;43.080;25.628;2023-08-07T05:15:54;3.90;;;3.50;;
7057;SDS011;3570;43.080;25.628;2023-08-07T05:18:38;3.77;;;3.37;;
7057;SDS011;3570;43.080;25.628;2023-08-07T05:21:22;4.13;;;3.53;;
7057;SDS011;3570;43.080;25.628;2023-08-07T05:24:06;3.90;;;3.43;;
7057;SDS011;3570;43.080;25.628;2023-08-07T05:26:49;4.00;;;3.60;;
7057;SDS011;3570;43.080;25.628;2023-08-07T05:29:36;3.80;;;3.40;;
7057;SDS011;3570;43.080;25.628;2023-08-07T05:32:27;4.23;;;3.60;;
7057;SDS011;3570;43.080;25.628;2023-08-07T05:35:11;4.50;;;3.60;;
7057;SDS011;3570;43.080;25.628;2023-08-07T05:37:55;4.50;;;4.00;;
7057;SDS011;3570;43.080;25.628;2023-08-07T05:40:39;4.40;;;3.50;;
7057;SDS011;3570;43.080;25.628;2023-08-07T05:43:24;4.57;;;3.37;;
7057;SDS011;3570;43.080;25.628;2023-08-07T05:46:08;4.03;;;3.27;;
7057;SDS011;3570;43.080;25.628;2023-08-07T05:48:52;4.00;;;3.53;;
7057;SDS011;3570;43.080;25.628;2023-08-07T05:51:36;3.53;;;3.10;;
7057;SDS011;3570;43.080;25.628;2023-08-07T05:54:20;3.50;;;3.13;;
7057;SDS011;3570;43.080;25.628;2023-08-07T05:57:05;4.17;;;3.40;;
7057;SDS011;3570;43.080;25.628;2023-08-07T05:59:49;4.30;;;3.30;;
7057;SDS011;3570;43.080;25.628;2023-08-07T06:02:33;4.23;;;3.17;;
7057;SDS011;3570;43.080;25.628;2023-08-07T06:05:17;2.97;;;2.67;;
7057;SDS011;3570;43.080;25.628;2023-08-07T06:08:01;3.10;;;2.80;;
7057;SDS011;3570;43.080;25.628;2023-08-07T06:10:45;3.30;;;3.00;;
7057;SDS011;3570;43.080;25.628;2023-08-07T06:13:29;4.30;;;2.70;;
7057;SDS011;3570;43.080;25.628;2023-08-07T06:16:14;3.70;;;3.00;;
7057;SDS011;3570;43.080;25.628;2023-08-07T06:18:58;3.20;;;2.90;;
7057;SDS011;3570;43.080;25.628;2023-08-07T06:21:42;3.23;;;2.93;;
7057;SDS011;3570;43.080;25.628;2023-08-07T06:24:26;2.73;;;2.47;;
7057;SDS011;3570;43.080;25.628;2023-08-07T06:27:10;2.87;;;2.57;;
7057;SDS011;3570;43.080;25.628;2023-08-07T06:29:54;5.27;;;3.43;;
7057;SDS011;3570;43.080;25.628;2023-08-07T06:32:39;2.60;;;2.40;;
7057;SDS011;3570;43.080;25.628;2023-08-07T06:35:23;2.77;;;2.47;;
7057;SDS011;3570;43.080;25.628;2023-08-07T06:38:07;3.17;;;2.80;;
7057;SDS011;3570;43.080;25.628;2023-08-07T06:40:52;3.73;;;2.97;;
7057;SDS011;3570;43.080;25.628;2023-08-07T06:43:36;4.03;;;3.00;;
7057;SDS011;3570;43.080;25.628;2023-08-07T06:46:20;3.73;;;2.97;;
7057;SDS011;3570;43.080;25.628;2023-08-07T06:49:08;3.50;;;2.77;;
7057;SDS011;3570;43.080;25.628;2023-08-07T06:51:52;2.97;;;2.50;;
7057;SDS011;3570;43.080;25.628;2023-08-07T06:54:36;2.70;;;2.50;;
7057;SDS011;3570;43.080;25.628;2023-08-07T06:57:20;2.53;;;2.10;;
7057;SDS011;3570;43.080;25.628;2023-08-07T07:10:31;3.03;;;2.73;;
7057;SDS011;3570;43.080;25.628;2023-08-07T07:26:16;3.77;;;2.87;;
7057;SDS011;3570;43.080;25.628;2023-08-07T07:29:00;2.00;;;1.90;;
7057;SDS011;3570;43.080;25.628;2023-08-07T07:31:44;2.20;;;2.00;;
7057;SDS011;3570;43.080;25.628;2023-08-07T07:34:28;1.90;;;1.80;;
7057;SDS011;3570;43.080;25.628;2023-08-07T07:37:12;2.27;;;2.07;;
7057;SDS011;3570;43.080;25.628;2023-08-07T07:39:58;2.40;;;2.10;;
7057;SDS011;3570;43.080;25.628;2023-08-07T07:42:42;2.40;;;2.20;;
7057;SDS011;3570;43.080;25.628;2023-08-07T07:45:26;2.30;;;2.10;;
7057;SDS011;3570;43.080;25.628;2023-08-07T07:48:10;2.53;;;2.30;;
7057;SDS011;3570;43.080;25.628;2023-08-07T07:51:00;2.00;;;1.90;;
7057;SDS011;3570;43.080;25.628;2023-08-07T07:53:45;2.97;;;2.27;;
7057;SDS011;3570;43.080;25.628;2023-08-07T07:56:29;2.57;;;2.37;;
7057;SDS011;3570;43.080;25.628;2023-08-07T07:59:13;2.00;;;1.90;;
7057;SDS011;3570;43.080;25.628;2023-08-07T08:01:57;2.53;;;2.07;;
7057;SDS011;3570;43.080;25.628;2023-08-07T08:04:41;2.53;;;2.20;;
7057;SDS011;3570;43.080;25.628;2023-08-07T08:07:25;1.93;;;1.83;;
7057;SDS011;3570;43.080;25.628;2023-08-07T08:10:09;2.30;;;2.10;;
7057;SDS011;3570;43.080;25.628;2023-08-07T08:12:57;1.70;;;1.60;;
7057;SDS011;3570;43.080;25.628;2023-08-07T08:15:41;2.00;;;1.80;;
7057;SDS011;3570;43.080;25.628;2023-08-07T08:18:25;2.17;;;1.97;;
7057;SDS011;3570;43.080;25.628;2023-08-07T08:21:08;1.90;;;1.80;;
7057;SDS011;3570;43.080;25.628;2023-08-07T08:23:52;2.30;;;1.90;;
7057;SDS011;3570;43.080;25.628;2023-08-07T08:26:36;1.90;;;1.80;;
7057;SDS011;3570;43.080;25.628;2023-08-07T08:29:20;2.40;;;2.10;;
7057;SDS011;3570;43.080;25.628;2023-08-07T08:32:04;1.70;;;1.60;;
7057;SDS011;3570;43.080;25.628;2023-08-07T08:34:48;1.77;;;1.67;;
7057;SDS011;3570;43.080;25.628;2023-08-07T08:37:33;2.20;;;2.00;;
7057;SDS011;3570;43.080;25.628;2023-08-07T08:40:17;2.10;;;1.90;;
7057;SDS011;3570;43.080;25.628;2023-08-07T08:43:02;5.40;;;1.80;;
7057;SDS011;3570;43.080;25.628;2023-08-07T08:45:49;1.70;;;1.60;;
7057;SDS011;3570;43.080;25.628;2023-08-07T08:48:37;1.70;;;1.60;;
7057;SDS011;3570;43.080;25.628;2023-08-07T08:51:23;2.27;;;1.60;;
7057;SDS011;3570;43.080;25.628;2023-08-07T08:54:08;1.50;;;1.40;;
7057;SDS011;3570;43.080;25.628;2023-08-07T08:56:53;2.00;;;1.80;;
7057;SDS011;3570;43.080;25.628;2023-08-07T08:59:39;2.57;;;1.60;;
7057;SDS011;3570;43.080;25.628;2023-08-07T09:02:25;1.90;;;1.60;;
7057;SDS011;3570;43.080;25.628;2023-08-07T09:05:10;1.80;;;1.67;;
7057;SDS011;3570;43.080;25.628;2023-08-07T09:07:53;1.60;;;1.50;;
7057;SDS011;3570;43.080;25.628;2023-08-07T09:10:40;1.50;;;1.40;;
7057;SDS011;3570;43.080;25.628;2023-08-07T09:13:25;1.77;;;1.60;;
7057;SDS011;3570;43.080;25.628;2023-08-07T09:16:11;1.47;;;1.37;;
7057;SDS011;3570;43.080;25.628;2023-08-07T09:18:56;1.50;;;1.40;;
7057;SDS011;3570;43.080;25.628;2023-08-07T09:21:40;1.87;;;1.50;;
7057;SDS011;3570;43.080;25.628;2023-08-07T09:24:24;1.60;;;1.43;;
7057;SDS011;3570;43.080;25.628;2023-08-07T09:27:07;1.60;;;1.50;;
7057;SDS011;3570;43.080;25.628;2023-08-07T09:29:54;1.60;;;1.50;;
7057;SDS011;3570;43.080;25.628;2023-08-07T09:32:38;1.63;;;1.40;;
7057;SDS011;3570;43.080;25.628;2023-08-07T09:35:23;1.70;;;1.60;;
7057;SDS011;3570;43.080;25.628;2023-08-07T09:38:07;1.45;;;1.30;;
7057;SDS011;3570;43.080;25.628;2023-08-07T09:40:51;1.60;;;1.50;;
7057;SDS011;3570;43.080;25.628;2023-08-07T09:43:35;1.30;;;1.20;;
7057;SDS011;3570;43.080;25.628;2023-08-07T09:46:20;1.73;;;1.40;;
7057;SDS011;3570;43.080;25.628;2023-08-07T09:49:04;1.40;;;1.30;;
7057;SDS011;3570;43.080;25.628;2023-08-07T09:51:48;1.40;;;1.30;;
7057;SDS011;3570;43.080;25.628;2023-08-07T09:54:34;1.60;;;1.50;;
7057;SDS011;3570;43.080;25.628;2023-08-07T09:57:18;1.38;;;1.27;;
7057;SDS011;3570;43.080;25.628;2023-08-07T10:00:07;1.33;;;1.23;;
7057;SDS011;3570;43.080;25.628;2023-08-07T10:02:55;1.30;;;1.20;;
7057;SDS011;3570;43.080;25.628;2023-08-07T10:05:39;1.38;;;1.27;;
7057;SDS011;3570;43.080;25.628;2023-08-07T10:08:25;1.40;;;1.17;;
7057;SDS011;3570;43.080;25.628;2023-08-07T10:11:09;1.48;;;1.30;;
7057;SDS011;3570;43.080;25.628;2023-08-07T10:13:54;1.40;;;1.30;;
7057;SDS011;3570;43.080;25.628;2023-08-07T10:16:40;3.15;;;1.45;;
7057;SDS011;3570;43.080;25.628;2023-08-07T10:19:25;1.42;;;1.30;;
7057;SDS011;3570;43.080;25.628;2023-08-07T10:22:09;1.35;;;1.25;;
7057;SDS011;3570;43.080;25.628;2023-08-07T10:24:53;1.40;;;1.30;;
7057;SDS011;3570;43.080;25.628;2023-08-07T10:27:41;1.70;;;1.50;;
7057;SDS011;3570;43.080;25.628;2023-08-07T10:30:27;1.40;;;1.13;;
7057;SDS011;3570;43.080;25.628;2023-08-07T10:33:12;1.15;;;1.10;;
7057;SDS011;3570;43.080;25.628;2023-08-07T10:35:58;1.10;;;1.10;;
7057;SDS011;3570;43.080;25.628;2023-08-07T10:38:49;1.35;;;1.25;;
7057;SDS011;3570;43.080;25.628;2023-08-07T10:41:46;1.23;;;1.13;;
7057;SDS011;3570;43.080;25.628;2023-08-07T10:44:31;1.38;;;1.27;;
7057;SDS011;3570;43.080;25.628;2023-08-07T10:47:17;1.42;;;1.33;;
7057;SDS011;3570;43.080;25.628;2023-08-07T10:50:17;1.40;;;1.30;;
7057;SDS011;3570;43.080;25.628;2023-08-07T10:53:01;1.50;;;1.33;;
7057;SDS011;3570;43.080;25.628;2023-08-07T10:55:48;1.25;;;1.17;;
7057;SDS011;3570;43.080;25.628;2023-08-07T11:04:19;2.00;;;1.20;;
7057;SDS011;3570;43.080;25.628;2023-08-07T11:07:03;1.50;;;1.10;;
7057;SDS011;3570;43.080;25.628;2023-08-07T11:09:47;1.25;;;1.15;;
7057;SDS011;3570;43.080;25.628;2023-08-07T11:12:32;1.23;;;1.10;;
7057;SDS011;3570;43.080;25.628;2023-08-07T11:15:16;1.30;;;1.20;;
7057;SDS011;3570;43.080;25.628;2023-08-07T11:18:00;1.35;;;1.23;;
7057;SDS011;3570;43.080;25.628;2023-08-07T11:20:44;0.95;;;0.95;;
7057;SDS011;3570;43.080;25.628;2023-08-07T11:23:28;1.50;;;1.20;;
7057;SDS011;3570;43.080;25.628;2023-08-07T11:26:12;1.10;;;1.10;;
7057;SDS011;3570;43.080;25.628;2023-08-07T11:28:56;1.27;;;1.17;;
7057;SDS011;3570;43.080;25.628;2023-08-07T11:31:41;1.10;;;1.00;;
7057;SDS011;3570;43.080;25.628;2023-08-07T11:34:25;1.02;;;1.02;;
7057;SDS011;3570;43.080;25.628;2023-08-07T11:37:14;1.40;;;1.30;;
7057;SDS011;3570;43.080;25.628;2023-08-07T11:40:00;1.00;;;1.00;;
7057;SDS011;3570;43.080;25.628;2023-08-07T11:42:45;1.20;;;1.02;;
7057;SDS011;3570;43.080;25.628;2023-08-07T11:45:30;1.20;;;1.10;;
7057;SDS011;3570;43.080;25.628;2023-08-07T11:48:14;1.10;;;1.02;;
7057;SDS011;3570;43.080;25.628;2023-08-07T11:51:00;1.30;;;1.20;;
7057;SDS011;3570;43.080;25.628;2023-08-07T11:53:44;1.23;;;1.08;;
7057;SDS011;3570;43.080;25.628;2023-08-07T11:56:29;0.90;;;0.90;;
7057;SDS011;3570;43.080;25.628;2023-08-07T11:59:16;1.25;;;1.15;;
7057;SDS011;3570;43.080;25.628;2023-08-07T12:02:08;1.10;;;1.08;;
7057;SDS011;3570;43.080;25.628;2023-08-07T12:04:58;0.90;;;0.90;;
7057;SDS011;3570;43.080;25.628;2023-08-07T12:07:42;1.73;;;1.20;;
7057;SDS011;3570;43.080;25.628;2023-08-07T12:10:26;1.20;;;1.10;;
7057;SDS011;3570;43.080;25.628;2023-08-07T12:13:14;1.40;;;1.30;;
7057;SDS011;3570;43.080;25.628;2023-08-07T12:15:58;1.50;;;1.05;;
7057;SDS011;3570;43.080;25.628;2023-08-07T12:18:46;1.20;;;1.10;;
7057;SDS011;3570;43.080;25.628;2023-08-07T12:21:31;2.30;;;2.10;;
7057;SDS011;3570;43.080;25.628;2023-08-07T12:24:17;1.20;;;1.10;;
7057;SDS011;3570;43.080;25.628;2023-08-07T12:27:01;1.10;;;1.00;;
7057;SDS011;3570;43.080;25.628;2023-08-07T12:29:45;1.17;;;1.10;;
7057;SDS011;3570;43.080;25.628;2023-08-07T12:32:29;1.17;;;1.08;;
7057;SDS011;3570;43.080;25.628;2023-08-07T12:35:14;1.00;;;1.00;;
7057;SDS011;3570;43.080;25.628;2023-08-07T12:37:58;0.95;;;0.95;;
7057;SDS011;3570;43.080;25.628;2023-08-07T12:40:42;1.77;;;1.50;;
7057;SDS011;3570;43.080;25.628;2023-08-07T12:43:26;0.98;;;0.98;;
7057;SDS011;3570;43.080;25.628;2023-08-07T12:46:11;2.35;;;2.15;;
7057;SDS011;3570;43.080;25.628;2023-08-07T12:48:56;0.82;;;0.82;;
7057;SDS011;3570;43.080;25.628;2023-08-07T12:51:39;1.10;;;1.00;;
7057;SDS011;3570;43.080;25.628;2023-08-07T12:54:23;0.90;;;0.90;;
7057;SDS011;3570;43.080;25.628;2023-08-07T12:57:07;1.33;;;0.90;;
7057;SDS011;3570;43.080;25.628;2023-08-07T12:59:51;2.05;;;1.80;;
7057;SDS011;3570;43.080;25.628;2023-08-07T13:02:35;1.65;;;1.55;;
7057;SDS011;3570;43.080;25.628;2023-08-07T13:05:19;0.90;;;0.90;;
7057;SDS011;3570;43.080;25.628;2023-08-07T13:08:05;1.73;;;1.48;;
7057;SDS011;3570;43.080;25.628;2023-08-07T13:10:49;2.70;;;2.50;;
7057;SDS011;3570;43.080;25.628;2023-08-07T13:13:33;1.45;;;1.08;;
7057;SDS011;3570;43.080;25.628;2023-08-07T13:16:17;1.00;;;1.00;;
7057;SDS011;3570;43.080;25.628;2023-08-07T13:19:01;0.70;;;0.70;;
7057;SDS011;3570;43.080;25.628;2023-08-07T13:21:45;2.40;;;1.10;;
7057;SDS011;3570;43.080;25.628;2023-08-07T13:24:29;1.10;;;1.00;;
7057;SDS011;3570;43.080;25.628;2023-08-07T13:27:13;1.00;;;1.00;;
7057;SDS011;3570;43.080;25.628;2023-08-07T13:29:57;0.77;;;0.77;;
7057;SDS011;3570;43.080;25.628;2023-08-07T13:32:42;1.77;;;1.65;;
7057;SDS011;3570;43.080;25.628;2023-08-07T13:35:26;1.13;;;1.05;;
7057;SDS011;3570;43.080;25.628;2023-08-07T13:38:10;1.35;;;1.25;;
7057;SDS011;3570;43.080;25.628;2023-08-07T13:40:55;0.80;;;0.80;;
7057;SDS011;3570;43.080;25.628;2023-08-07T13:43:39;0.60;;;0.60;;
7057;SDS011;3570;43.080;25.628;2023-08-07T13:46:23;1.02;;;1.02;;
7057;SDS011;3570;43.080;25.628;2023-08-07T13:49:08;1.92;;;1.25;;
7057;SDS011;3570;43.080;25.628;2023-08-07T13:51:53;1.30;;;1.20;;
7057;SDS011;3570;43.080;25.628;2023-08-07T13:54:36;1.10;;;1.00;;
7057;SDS011;3570;43.080;25.628;2023-08-07T13:57:20;0.70;;;0.70;;
7057;SDS011;3570;43.080;25.628;2023-08-07T14:00:05;1.25;;;1.05;;
7057;SDS011;3570;43.080;25.628;2023-08-07T14:02:49;2.05;;;0.93;;
7057;SDS011;3570;43.080;25.628;2023-08-07T14:05:33;1.30;;;1.20;;
7057;SDS011;3570;43.080;25.628;2023-08-07T14:08:17;1.60;;;1.38;;
7057;SDS011;3570;43.080;25.628;2023-08-07T14:11:01;0.98;;;0.90;;
7057;SDS011;3570;43.080;25.628;2023-08-07T14:13:46;0.80;;;0.80;;
7057;SDS011;3570;43.080;25.628;2023-08-07T14:16:31;1.02;;;0.93;;
7057;SDS011;3570;43.080;25.628;2023-08-07T14:19:15;0.77;;;0.77;;
7057;SDS011;3570;43.080;25.628;2023-08-07T14:21:59;0.95;;;0.95;;
7057;SDS011;3570;43.080;25.628;2023-08-07T14:24:43;0.90;;;0.90;;
7057;SDS011;3570;43.080;25.628;2023-08-07T14:27:26;0.90;;;0.90;;
7057;SDS011;3570;43.080;25.628;2023-08-07T14:30:11;0.70;;;0.70;;
7057;SDS011;3570;43.080;25.628;2023-08-07T14:32:55;1.48;;;1.38;;
7057;SDS011;3570;43.080;25.628;2023-08-07T14:35:39;0.68;;;0.68;;
7057;SDS011;3570;43.080;25.628;2023-08-07T14:38:24;1.13;;;0.73;;
7057;SDS011;3570;43.080;25.628;2023-08-07T14:41:08;1.10;;;1.00;;
7057;SDS011;3570;43.080;25.628;2023-08-07T14:43:52;0.82;;;0.82;;
7057;SDS011;3570;43.080;25.628;2023-08-07T14:46:36;1.35;;;1.15;;
7057;SDS011;3570;43.080;25.628;2023-08-07T14:49:21;1.25;;;1.10;;
7057;SDS011;3570;43.080;25.628;2023-08-07T14:52:05;0.82;;;0.80;;
7057;SDS011;3570;43.080;25.628;2023-08-07T14:54:50;0.98;;;0.80;;
7057;SDS011;3570;43.080;25.628;2023-08-07T14:57:36;0.80;;;0.80;;
7057;SDS011;3570;43.080;25.628;2023-08-07T15:00:20;1.45;;;1.10;;
7057;SDS011;3570;43.080;25.628;2023-08-07T15:03:05;1.33;;;1.20;;
7057;SDS011;3570;43.080;25.628;2023-08-07T15:05:49;1.98;;;1.20;;
7057;SDS011;3570;43.080;25.628;2023-08-07T15:08:33;0.98;;;0.95;;
7057;SDS011;3570;43.080;25.628;2023-08-07T15:11:17;0.80;;;0.70;;
7057;SDS011;3570;43.080;25.628;2023-08-07T15:14:01;0.98;;;0.98;;
7057;SDS011;3570;43.080;25.628;2023-08-07T15:16:48;1.23;;;1.13;;
7057;SDS011;3570;43.080;25.628;2023-08-07T15:19:32;1.40;;;1.30;;
7057;SDS011;3570;43.080;25.628;2023-08-07T15:22:16;0.90;;;0.90;;
7057;SDS011;3570;43.080;25.628;2023-08-07T15:25:00;1.20;;;1.00;;
7057;SDS011;3570;43.080;25.628;2023-08-07T15:27:43;0.77;;;0.77;;
7057;SDS011;3570;43.080;25.628;2023-08-07T15:30:27;0.95;;;0.90;;
7057;SDS011;3570;43.080;25.628;2023-08-07T15:33:12;1.77;;;1.67;;
7057;SDS011;3570;43.080;25.628;2023-08-07T15:35:57;1.52;;;1.42;;
7057;SDS011;3570;43.080;25.628;2023-08-07T15:38:41;1.20;;;1.10;;
7057;SDS011;3570;43.080;25.628;2023-08-07T15:41:26;1.05;;;1.00;;
7057;SDS011;3570;43.080;25.628;2023-08-07T15:44:10;1.42;;;1.02;;
7057;SDS011;3570;43.080;25.628;2023-08-07T15:46:54;1.70;;;1.40;;
7057;SDS011;3570;43.080;25.628;2023-08-07T15:49:38;1.40;;;1.30;;
7057;SDS011;3570;43.080;25.628;2023-08-07T15:52:22;1.92;;;1.50;;
7057;SDS011;3570;43.080;25.628;2023-08-07T15:55:06;1.25;;;1.15;;
7057;SDS011;3570;43.080;25.628;2023-08-07T15:57:52;1.35;;;1.20;;
7057;SDS011;3570;43.080;25.628;2023-08-07T16:00:36;1.25;;;1.15;;
7057;SDS011;3570;43.080;25.628;2023-08-07T16:03:21;1.20;;;1.10;;
7057;SDS011;3570;43.080;25.628;2023-08-07T16:06:05;1.63;;;1.40;;
7057;SDS011;3570;43.080;25.628;2023-08-07T16:08:49;1.45;;;1.35;;
7057;SDS011;3570;43.080;25.628;2023-08-07T16:11:33;1.23;;;1.13;;
7057;SDS011;3570;43.080;25.628;2023-08-07T16:14:17;1.20;;;1.10;;
7057;SDS011;3570;43.080;25.628;2023-08-07T16:17:02;1.08;;;1.00;;
7057;SDS011;3570;43.080;25.628;2023-08-07T16:19:46;1.55;;;1.00;;
7057;SDS011;3570;43.080;25.628;2023-08-07T16:22:30;1.00;;;1.00;;
7057;SDS011;3570;43.080;25.628;2023-08-07T16:25:14;1.60;;;1.25;;
7057;SDS011;3570;43.080;25.628;2023-08-07T16:27:58;1.30;;;1.20;;
7057;SDS011;3570;43.080;25.628;2023-08-07T16:30:42;1.10;;;1.00;;
7057;SDS011;3570;43.080;25.628;2023-08-07T16:33:26;0.80;;;0.80;;
7057;SDS011;3570;43.080;25.628;2023-08-07T16:36:11;1.20;;;1.10;;
7057;SDS011;3570;43.080;25.628;2023-08-07T16:38:56;1.20;;;1.10;;
7057;SDS011;3570;43.080;25.628;2023-08-07T16:41:40;1.55;;;1.30;;
7057;SDS011;3570;43.080;25.628;2023-08-07T16:44:28;1.30;;;1.20;;
7057;SDS011;3570;43.080;25.628;2023-08-07T16:47:12;2.10;;;1.50;;
7057;SDS011;3570;43.080;25.628;2023-08-07T16:49:57;1.60;;;1.38;;
7057;SDS011;3570;43.080;25.628;2023-08-07T16:52:41;1.80;;;1.48;;
7057;SDS011;3570;43.080;25.628;2023-08-07T16:55:25;1.50;;;1.40;;
7057;SDS011;3570;43.080;25.628;2023-08-07T16:58:10;1.53;;;1.40;;
7057;SDS011;3570;43.080;25.628;2023-08-07T17:00:54;1.80;;;1.60;;
7057;SDS011;3570;43.080;25.628;2023-08-07T17:03:38;1.27;;;1.17;;
7057;SDS011;3570;43.080;25.628;2023-08-07T17:06:22;1.77;;;1.40;;
7057;SDS011;3570;43.080;25.628;2023-08-07T17:09:06;1.83;;;1.50;;
7057;SDS011;3570;43.080;25.628;2023-08-07T17:11:51;2.63;;;1.50;;
7057;SDS011;3570;43.080;25.628;2023-08-07T17:14:35;1.50;;;1.40;;
7057;SDS011;3570;43.080;25.628;2023-08-07T17:17:19;2.10;;;1.63;;
7057;SDS011;3570;43.080;25.628;2023-08-07T17:20:03;2.60;;;2.17;;
7057;SDS011;3570;43.080;25.628;2023-08-07T17:22:48;3.03;;;1.80;;